createdAt,value
2018-02-06T00:00:43.301Z,3.39
2018-02-06T00:01:39.405Z,3.34
2018-02-06T00:02:31.352Z,3.34
2018-02-06T00:03:23.705Z,3.25
2018-02-06T00:04:17.079Z,3.19
2018-02-06T00:05:10.079Z,3.22
2018-02-06T00:06:02.515Z,3.05
2018-02-06T00:06:59.916Z,2.95
2018-02-06T00:07:53.746Z,2.87
2018-02-06T00:08:47.680Z,2.97
2018-02-06T00:09:39.991Z,2.86
2018-02-06T00:10:35.146Z,2.73
2018-02-06T00:11:27.558Z,2.44
2018-02-06T00:12:19.655Z,2.4
2018-02-06T00:13:11.493Z,2.2
2018-02-06T00:14:56.807Z,2.04
2018-02-06T00:15:35.257Z,1.95
2018-02-06T00:16:15.685Z,2.09
2018-02-06T00:16:56.068Z,2.25
2018-02-06T00:17:36.472Z,2.2
2018-02-06T00:18:16.953Z,2.43
2018-02-06T00:18:57.284Z,2.48
2018-02-06T00:19:37.699Z,2.61
2018-02-06T00:20:18.083Z,2.59
2018-02-06T00:20:58.514Z,2.66
2018-02-06T00:21:38.932Z,2.65
2018-02-06T00:23:31.019Z,3.02
2018-02-06T00:24:12.354Z,3.13
2018-02-06T00:24:52.747Z,3.13
2018-02-06T00:25:34.083Z,3.08
2018-02-06T00:26:14.319Z,3.19
2018-02-06T00:26:54.706Z,3.12
2018-02-06T00:27:35.129Z,3.12
2018-02-06T00:28:15.539Z,2.99
2018-02-06T00:28:55.930Z,2.89
2018-02-06T00:30:51.361Z,3.15
2018-02-06T00:31:38.365Z,3.16
2018-02-06T00:32:16.559Z,3.13
2018-02-06T00:32:56.987Z,3.16
2018-02-06T00:33:37.366Z,3.07
2018-02-06T00:34:17.772Z,2.94
2018-02-06T00:34:58.190Z,2.97
2018-02-06T00:35:38.600Z,3.07
2018-02-06T00:36:18.977Z,3.17
2018-02-06T00:36:59.409Z,3.37
2018-02-06T00:37:39.794Z,3.41
2018-02-06T00:38:20.228Z,3.56
2018-02-06T00:39:00.631Z,3.57
2018-02-06T00:39:41.086Z,3.53
2018-02-06T00:40:21.462Z,3.7
2018-02-06T00:41:01.832Z,3.75
2018-02-06T00:41:42.204Z,3.89
2018-02-06T00:42:22.585Z,3.82
2018-02-06T00:43:02.960Z,3.82
2018-02-06T00:43:43.387Z,3.84
2018-02-06T00:44:23.760Z,3.92
2018-02-06T00:45:04.134Z,3.96
2018-02-06T00:45:44.605Z,3.93
2018-02-06T00:46:24.956Z,3.99
2018-02-06T00:47:05.399Z,4.1
2018-02-06T00:49:03.325Z,4.08
2018-02-06T00:49:46.293Z,3.99
2018-02-06T00:50:26.665Z,3.96
2018-02-06T00:51:07.032Z,3.95
2018-02-06T00:51:47.431Z,3.86
2018-02-06T00:52:27.802Z,3.89
2018-02-06T00:53:08.191Z,3.86
2018-02-06T00:53:48.691Z,4
2018-02-06T00:54:29.229Z,4.02
2018-02-06T00:55:09.408Z,4.04
2018-02-06T00:55:49.794Z,4.1
2018-02-06T00:56:30.194Z,4.13
2018-02-06T00:57:10.597Z,4.07
2018-02-06T00:57:50.974Z,4.16
2018-02-06T00:58:31.415Z,4.02
2018-02-06T00:59:11.758Z,4.02
2018-02-06T00:59:52.150Z,3.78
2018-02-06T01:00:32.525Z,3.78
2018-02-06T01:01:12.939Z,3.74
2018-02-06T01:01:53.346Z,3.77
2018-02-06T01:02:33.759Z,3.78
2018-02-06T01:03:14.157Z,3.8
2018-02-06T01:03:54.552Z,3.82
2018-02-06T01:04:34.928Z,3.89
2018-02-06T01:05:15.346Z,3.95
2018-02-06T01:05:55.743Z,3.98
2018-02-06T01:06:36.198Z,4.02
2018-02-06T01:07:16.613Z,4.08
2018-02-06T01:07:56.959Z,4.16
2018-02-06T01:08:37.385Z,4.26
2018-02-06T01:10:36.571Z,4.26
2018-02-06T01:11:19.254Z,4.36
2018-02-06T01:11:59.579Z,4.32
2018-02-06T01:12:39.975Z,4.35
2018-02-06T01:13:20.380Z,4.46
2018-02-06T01:14:00.796Z,4.46
2018-02-06T01:14:41.184Z,4.56
2018-02-06T01:15:21.605Z,4.57
2018-02-06T01:16:02.034Z,4.49
2018-02-06T01:16:42.423Z,4.68
2018-02-06T01:17:22.781Z,4.67
2018-02-06T01:18:03.263Z,4.83
2018-02-06T01:18:43.686Z,4.74
2018-02-06T01:19:23.993Z,4.74
2018-02-06T01:20:04.367Z,4.8
2018-02-06T01:20:44.734Z,4.83
2018-02-06T01:21:25.113Z,4.9
2018-02-06T01:22:05.527Z,4.93
2018-02-06T01:22:45.905Z,4.93
2018-02-06T01:23:26.291Z,4.9
2018-02-06T01:24:06.659Z,4.9
2018-02-06T01:24:47.079Z,4.88
2018-02-06T01:25:27.449Z,4.97
2018-02-06T01:26:07.847Z,4.91
2018-02-06T01:26:48.271Z,4.88
2018-02-06T01:27:28.703Z,4.96
2018-02-06T01:28:09.099Z,4.93
2018-02-06T01:29:47.258Z,4.96
2018-02-06T01:30:27.930Z,4.97
2018-02-06T01:31:08.311Z,4.96
2018-02-06T01:31:48.765Z,4.88
2018-02-06T01:32:29.119Z,4.8
2018-02-06T01:33:09.528Z,4.75
2018-02-06T01:33:49.923Z,4.77
2018-02-06T01:34:30.353Z,4.69
2018-02-06T01:35:10.774Z,4.64
2018-02-06T01:35:51.120Z,4.59
2018-02-06T01:36:31.553Z,4.71
2018-02-06T01:37:11.932Z,4.68
2018-02-06T01:37:52.387Z,4.75
2018-02-06T01:38:32.698Z,4.79
2018-02-06T01:39:13.094Z,4.68
2018-02-06T01:41:30.389Z,4.65
2018-02-06T01:43:02.613Z,4.65
2018-02-06T01:43:42.939Z,4.64
2018-02-06T01:44:23.345Z,4.54
2018-02-06T01:45:03.720Z,4.61
2018-02-06T01:45:44.105Z,4.65
2018-02-06T01:46:24.522Z,4.74
2018-02-06T01:47:04.954Z,4.69
2018-02-06T01:47:45.318Z,4.72
2018-02-06T01:48:25.808Z,4.61
2018-02-06T01:49:06.088Z,4.65
2018-02-06T01:51:08.371Z,4.47
2018-02-06T01:52:42.690Z,4.64
2018-02-06T01:53:21.585Z,4.56
2018-02-06T01:54:01.983Z,4.54
2018-02-06T01:54:42.392Z,4.51
2018-02-06T01:55:22.733Z,4.54
2018-02-06T01:56:03.182Z,4.59
2018-02-06T01:56:43.569Z,4.59
2018-02-06T01:57:23.961Z,4.61
2018-02-06T01:58:04.381Z,4.59
2018-02-06T01:58:44.837Z,4.51
2018-02-06T01:59:25.215Z,4.67
2018-02-06T02:00:05.604Z,4.65
2018-02-06T02:00:46.047Z,4.56
2018-02-06T02:01:26.420Z,4.62
2018-02-06T02:02:06.800Z,4.65
2018-02-06T02:02:47.196Z,4.8
2018-02-06T02:03:27.599Z,4.79
2018-02-06T02:04:08.080Z,4.74
2018-02-06T02:04:48.422Z,4.87
2018-02-06T02:05:28.837Z,4.8
2018-02-06T02:06:09.236Z,4.88
2018-02-06T02:06:49.631Z,4.91
2018-02-06T02:07:29.987Z,4.97
2018-02-06T02:08:10.388Z,4.97
2018-02-06T02:08:50.764Z,5.05
2018-02-06T02:09:31.197Z,4.94
2018-02-06T02:10:11.578Z,4.88
2018-02-06T02:10:51.996Z,4.93
2018-02-06T02:11:32.462Z,4.96
2018-02-06T02:12:12.804Z,5.04
2018-02-06T02:12:53.217Z,4.91
2018-02-06T02:13:33.598Z,4.91
2018-02-06T02:14:13.970Z,4.94
2018-02-06T02:14:54.388Z,5.06
2018-02-06T02:15:34.787Z,4.91
2018-02-06T02:16:15.193Z,5.04
2018-02-06T02:16:55.632Z,4.9
2018-02-06T02:17:35.964Z,4.97
2018-02-06T02:18:16.426Z,4.9
2018-02-06T02:18:56.773Z,4.96
2018-02-06T02:19:37.213Z,4.87
2018-02-06T02:20:17.629Z,5.05
2018-02-06T02:20:58.041Z,4.94
2018-02-06T02:21:38.342Z,4.96
2018-02-06T02:22:18.721Z,4.91
2018-02-06T02:22:59.116Z,4.9
2018-02-06T02:23:39.559Z,4.93
2018-02-06T02:24:19.926Z,4.9
2018-02-06T02:25:00.316Z,4.77
2018-02-06T02:25:40.764Z,4.75
2018-02-06T02:26:21.119Z,4.84
2018-02-06T02:27:01.552Z,4.83
2018-02-06T02:27:41.876Z,4.77
2018-02-06T02:28:22.297Z,4.75
2018-02-06T02:29:02.705Z,4.75
2018-02-06T02:29:43.065Z,4.74
2018-02-06T02:30:23.445Z,4.77
2018-02-06T02:31:03.917Z,4.79
2018-02-06T02:31:44.287Z,4.74
2018-02-06T02:32:24.769Z,4.71
2018-02-06T02:33:05.090Z,4.68
2018-02-06T02:33:45.490Z,4.64
2018-02-06T02:34:25.965Z,4.59
2018-02-06T02:35:06.324Z,4.65
2018-02-06T02:35:46.719Z,4.65
2018-02-06T02:36:27.144Z,4.64
2018-02-06T02:37:07.559Z,4.67
2018-02-06T02:37:47.903Z,4.61
2018-02-06T02:38:28.322Z,4.54
2018-02-06T02:39:08.678Z,4.61
2018-02-06T02:39:49.120Z,4.61
2018-02-06T02:40:29.481Z,4.67
2018-02-06T02:41:09.892Z,4.65
2018-02-06T04:41:59.728Z,3.89
2018-02-06T04:42:39.666Z,3.84
2018-02-06T04:43:20.071Z,3.75
2018-02-06T04:44:00.479Z,3.63
2018-02-06T04:44:40.877Z,3.59
2018-02-06T04:45:21.209Z,3.53
2018-02-06T04:46:58.716Z,3.45
2018-02-06T04:47:38.898Z,3.54
2018-02-06T04:48:19.296Z,3.72
2018-02-06T04:48:59.679Z,3.77
2018-02-06T04:49:40.088Z,3.6
2018-02-06T04:50:20.490Z,3.68
2018-02-06T04:51:00.879Z,3.57
2018-02-06T04:51:41.293Z,3.53
2018-02-06T04:52:21.668Z,3.56
2018-02-06T04:53:02.054Z,3.52
2018-02-06T04:53:42.440Z,3.57
2018-02-06T04:54:22.836Z,3.63
2018-02-06T04:55:03.246Z,3.67
2018-02-06T04:55:43.684Z,3.63
2018-02-06T04:56:24.067Z,3.63
2018-02-06T04:57:04.501Z,3.86
2018-02-06T04:57:44.909Z,3.84
2018-02-06T04:58:25.315Z,3.9
2018-02-06T04:59:05.682Z,4.04
2018-02-06T04:59:46.057Z,4.1
2018-02-06T05:00:26.449Z,4.13
2018-02-06T05:01:06.860Z,4.13
2018-02-06T05:01:47.206Z,4.08
2018-02-06T05:02:27.599Z,4.2
2018-02-06T05:03:08.043Z,4.13
2018-02-06T05:03:48.430Z,4.13
2018-02-06T05:04:28.824Z,4.25
2018-02-06T05:05:09.210Z,4.25
2018-02-06T05:05:49.607Z,4.31
2018-02-06T05:06:30.017Z,4.25
2018-02-06T05:07:10.360Z,4.39
2018-02-06T05:07:50.760Z,4.43
2018-02-06T05:08:31.158Z,4.42
2018-02-06T05:09:11.584Z,4.56
2018-02-06T05:09:51.986Z,4.54
2018-02-06T05:10:32.355Z,4.57
2018-02-06T05:12:10.681Z,4.68
2018-02-06T05:12:50.272Z,4.65
2018-02-06T05:13:30.666Z,4.75
2018-02-06T05:14:11.061Z,4.77
2018-02-06T05:14:51.443Z,4.86
2018-02-06T05:15:31.800Z,5.04
2018-02-06T05:16:12.224Z,5.02
2018-02-06T05:16:52.570Z,5.06
2018-02-06T05:17:32.961Z,5.06
2018-02-06T05:19:10.388Z,5.06
2018-02-06T05:19:50.581Z,4.91
2018-02-06T05:20:30.974Z,4.88
2018-02-06T05:21:11.295Z,4.93
2018-02-06T05:21:51.656Z,4.86
2018-02-06T05:22:32.079Z,4.84
2018-02-06T05:23:12.476Z,4.74
2018-02-06T05:23:52.884Z,4.77
2018-02-06T05:24:33.237Z,4.8
2018-02-06T05:25:13.618Z,4.72
2018-02-06T05:25:54.038Z,4.8
2018-02-06T05:26:34.402Z,4.77
2018-02-06T05:27:14.882Z,4.86
2018-02-06T05:27:55.209Z,4.94
2018-02-06T05:28:35.577Z,4.9
2018-02-06T05:29:16.003Z,4.94
2018-02-06T05:29:56.348Z,5.09
2018-02-06T05:30:36.745Z,5.06
2018-02-06T05:31:17.148Z,5.02
2018-02-06T05:31:57.599Z,5.14
2018-02-06T05:32:37.953Z,5.15
2018-02-06T05:33:18.471Z,5.02
2018-02-06T05:33:58.774Z,5.06
2018-02-06T05:36:13.278Z,5.15
2018-02-06T05:36:52.460Z,5.17
2018-02-06T05:37:32.801Z,5.29
2018-02-06T05:38:13.184Z,5.24
2018-02-06T05:40:29.317Z,5.4
2018-02-06T05:41:08.020Z,5.32
2018-02-06T05:41:48.456Z,5.3
2018-02-06T05:42:28.845Z,5.27
2018-02-06T05:43:09.256Z,5.33
2018-02-06T05:43:49.641Z,5.37
2018-02-06T05:44:30.033Z,5.38
2018-02-06T05:45:10.486Z,5.37
2018-02-06T05:45:50.842Z,5.42
2018-02-06T05:46:31.289Z,5.4
2018-02-06T05:47:11.808Z,5.24
2018-02-06T05:47:52.192Z,5.3
2018-02-06T05:48:32.680Z,5.37
2018-02-06T05:49:13.115Z,5.44
2018-02-06T05:49:53.565Z,5.41
2018-02-06T05:50:33.963Z,5.4
2018-02-06T05:51:14.348Z,5.35
2018-02-06T05:51:54.781Z,5.37
2018-02-06T05:53:42.516Z,5.24
2018-02-06T05:54:22.464Z,5.4
2018-02-06T05:55:02.885Z,5.33
2018-02-06T05:56:50.295Z,5.33
2018-02-06T05:57:30.684Z,5.24
2018-02-06T05:58:11.096Z,5.24
2018-02-06T05:58:51.502Z,5.23
2018-02-06T05:59:31.948Z,5.24
2018-02-06T06:00:12.349Z,5.29
2018-02-06T06:00:52.731Z,5.33
2018-02-06T06:01:33.147Z,5.23
2018-02-06T06:02:13.552Z,5.26
2018-02-06T06:02:53.926Z,5.26
2018-02-06T06:04:53.643Z,5.35
2018-02-06T06:05:34.174Z,5.27
2018-02-06T06:06:14.576Z,5.37
2018-02-06T06:06:54.971Z,5.26
2018-02-06T06:07:35.404Z,5.29
2018-02-06T06:08:15.822Z,5.3
2018-02-06T06:08:56.272Z,5.27
2018-02-06T06:09:36.647Z,5.35
2018-02-06T06:10:16.998Z,5.26
2018-02-06T06:10:57.378Z,5.33
2018-02-06T06:11:37.816Z,5.42
2018-02-06T06:12:18.213Z,5.38
2018-02-06T06:12:58.619Z,5.38
2018-02-06T06:13:39.388Z,5.45
2018-02-06T06:14:20.006Z,5.35
2018-02-06T06:15:00.411Z,5.26
2018-02-06T06:15:40.805Z,5.24
2018-02-06T06:17:18.432Z,5.24
2018-02-06T06:17:59.963Z,5.29
2018-02-06T06:18:40.370Z,5.32
2018-02-06T06:19:20.792Z,5.29
2018-02-06T06:20:01.178Z,5.23
2018-02-06T06:21:54.355Z,5.24
2018-02-06T06:22:35.923Z,5.23
2018-02-06T06:23:16.303Z,5.22
2018-02-06T06:23:56.751Z,5.3
2018-02-06T06:24:37.128Z,5.33
2018-02-06T06:25:17.498Z,5.33
2018-02-06T06:25:57.900Z,5.32
2018-02-06T06:28:33.860Z,5.17
2018-02-06T06:29:14.275Z,5.19
2018-02-06T06:29:54.712Z,5.14
2018-02-06T06:30:35.171Z,5.14
2018-02-06T06:31:15.545Z,5.17
2018-02-06T06:31:55.937Z,5.15
2018-02-06T06:32:36.387Z,5.2
2018-02-06T06:33:16.738Z,5.19
2018-02-06T06:33:57.120Z,5.22
2018-02-06T06:36:10.609Z,5.29
2018-02-06T06:36:53.536Z,5.22
2018-02-06T06:37:33.340Z,5.23
2018-02-06T06:39:21.476Z,5.27
2018-02-06T06:40:01.404Z,5.26
2018-02-06T06:40:41.822Z,5.24
2018-02-06T06:41:22.191Z,5.3
2018-02-06T06:42:02.575Z,5.24
2018-02-06T06:42:42.946Z,5.26
2018-02-06T06:43:23.336Z,5.3
2018-02-06T06:44:03.804Z,5.26
2018-02-06T06:44:45.740Z,5.22
2018-02-06T06:45:26.143Z,5.22
2018-02-06T06:46:06.539Z,5.24
2018-02-06T06:46:46.943Z,5.26
2018-02-06T06:47:27.390Z,5.08
2018-02-06T06:48:07.788Z,4.83
2018-02-06T06:48:48.247Z,4.77
2018-02-06T06:49:28.671Z,4.72
2018-02-06T06:50:09.115Z,4.74
2018-02-06T06:50:49.535Z,4.67
2018-02-06T06:51:30.201Z,4.65
2018-02-06T06:52:10.583Z,4.62
2018-02-06T06:52:51.012Z,4.68
2018-02-06T06:53:31.447Z,4.68
2018-02-06T06:54:11.842Z,4.71
2018-02-06T06:54:52.259Z,4.83
2018-02-06T06:55:32.750Z,4.9
2018-02-06T06:56:13.158Z,4.94
2018-02-06T06:56:53.570Z,4.86
2018-02-06T06:57:34.239Z,4.88
2018-02-06T06:58:14.646Z,4.83
2018-02-06T06:58:55.021Z,4.96
2018-02-06T06:59:35.438Z,4.97
2018-02-06T07:00:15.850Z,5.06
2018-02-06T07:00:56.319Z,5.01
2018-02-06T07:01:36.923Z,5.04
2018-02-06T07:02:17.374Z,5.05
2018-02-06T07:04:02.157Z,5.23
2018-02-06T07:05:34.733Z,5.23
2018-02-06T07:06:17.820Z,5.24
2018-02-06T07:06:58.279Z,5.24
2018-02-06T07:07:38.587Z,5.24
2018-02-06T07:09:31.268Z,5.26
2018-02-06T07:11:33.612Z,5.32
2018-02-06T07:12:13.984Z,5.23
2018-02-06T07:14:11.970Z,5.3
2018-02-06T07:14:53.440Z,5.29
2018-02-06T07:18:27.484Z,5.33
2018-02-06T07:19:10.041Z,5.33
2018-02-06T07:19:47.737Z,5.37
2018-02-06T07:20:28.180Z,5.32
2018-02-06T07:21:08.522Z,5.35
2018-02-06T07:21:49.067Z,5.38
2018-02-06T07:23:41.152Z,5.49
2018-02-06T07:24:22.462Z,5.44
2018-02-06T07:25:02.824Z,5.55
2018-02-06T07:25:43.261Z,5.52
2018-02-06T07:26:23.639Z,5.58
2018-02-06T07:27:04.065Z,5.59
2018-02-06T07:27:44.450Z,5.62
2018-02-06T07:28:24.937Z,5.65
2018-02-06T07:29:05.327Z,5.73
2018-02-06T07:29:45.755Z,5.63
2018-02-06T07:30:26.120Z,5.58
2018-02-06T07:31:06.516Z,5.63
2018-02-06T07:31:46.987Z,5.66
2018-02-06T07:32:27.309Z,5.7
2018-02-06T07:33:07.682Z,5.62
2018-02-06T07:33:48.151Z,5.67
2018-02-06T07:36:04.978Z,5.73
2018-02-06T07:36:59.718Z,5.73
2018-02-06T07:38:08.081Z,5.66
2018-02-06T07:39:01.716Z,5.6
2018-02-06T07:40:39.513Z,5.42
2018-02-06T07:41:18.822Z,5.24
2018-02-06T07:42:00.018Z,5.26
2018-02-06T07:42:39.835Z,5.32
2018-02-06T07:43:20.302Z,5.24
2018-02-06T07:44:01.645Z,5.3
2018-02-06T07:44:42.239Z,5.35
2018-02-06T07:45:22.654Z,5.45
2018-02-06T07:47:36.752Z,5.52
2018-02-06T07:48:19.175Z,5.55
2018-02-06T07:48:59.590Z,5.58
2018-02-06T07:49:40.001Z,5.58
2018-02-06T07:50:20.329Z,5.7
2018-02-06T07:51:00.785Z,5.75
2018-02-06T07:52:59.764Z,5.87
2018-02-06T07:53:41.438Z,5.81
2018-02-06T07:54:21.839Z,5.87
2018-02-06T07:55:02.288Z,5.8
2018-02-06T07:55:42.745Z,5.74
2018-02-06T07:56:23.225Z,5.74
2018-02-06T07:57:03.556Z,5.6
2018-02-06T07:57:43.948Z,5.65
2018-02-06T07:59:41.856Z,5.7
2018-02-06T08:00:22.551Z,5.69
2018-02-06T08:01:02.963Z,5.69
2018-02-06T08:01:43.378Z,5.7
2018-02-06T08:03:36.301Z,5.87
2018-02-06T08:04:16.220Z,5.93
2018-02-06T08:04:56.677Z,5.87
2018-02-06T08:05:37.016Z,5.96
2018-02-06T08:06:17.468Z,5.92
2018-02-06T08:06:58.252Z,5.93
2018-02-06T08:07:38.719Z,5.93
2018-02-06T08:08:19.209Z,5.88
2018-02-06T08:08:59.742Z,6.05
2018-02-06T08:09:40.111Z,6.02
2018-02-06T08:10:20.646Z,6.06
2018-02-06T08:11:00.990Z,6.05
2018-02-06T08:11:41.408Z,6.11
2018-02-06T08:12:21.811Z,6.11
2018-02-06T08:14:15.128Z,6.13
2018-02-06T08:14:55.452Z,6.1
2018-02-06T08:15:35.860Z,6.08
2018-02-06T08:16:16.298Z,6.03
2018-02-06T08:16:56.736Z,6.08
2018-02-06T08:17:37.039Z,6.13
2018-02-06T08:18:17.490Z,6.17
2018-02-06T08:18:57.924Z,6.16
2018-02-06T08:19:38.369Z,6.21
2018-02-06T08:20:18.829Z,6.2
2018-02-06T08:22:19.158Z,6.11
2018-02-06T08:24:19.955Z,6.25
2018-02-06T08:25:00.407Z,6.3
2018-02-06T08:25:40.881Z,6.28
2018-02-06T08:26:21.244Z,6.39
2018-02-06T08:27:01.622Z,6.3
2018-02-06T08:27:42.048Z,6.39
2018-02-06T08:28:22.432Z,6.5
2018-02-06T08:29:03.365Z,6.35
2018-02-06T08:29:43.732Z,6.27
2018-02-06T08:30:24.722Z,6.14
2018-02-06T08:31:05.566Z,6.21
2018-02-06T08:31:46.193Z,6.19
2018-02-06T08:32:26.656Z,6.21
2018-02-06T08:33:07.148Z,6.16
2018-02-06T08:33:47.554Z,6.1
2018-02-06T08:34:27.878Z,6.21
2018-02-06T08:35:08.499Z,6.13
2018-02-06T08:35:48.918Z,6.14
2018-02-06T08:36:29.400Z,6.14
2018-02-06T08:37:09.788Z,6.05
2018-02-06T08:37:50.205Z,6.06
2018-02-06T08:39:53.501Z,5.99
2018-02-06T08:40:47.563Z,5.98
2018-02-06T08:41:40.545Z,5.87
2018-02-06T08:42:35.934Z,5.65
2018-02-06T08:45:02.432Z,5.42
2018-02-06T08:45:55.670Z,5.58
2018-02-06T08:46:51.383Z,5.51
2018-02-06T08:47:50.952Z,5.56
2018-02-06T08:48:46.162Z,5.58
2018-02-06T08:49:38.960Z,5.42
2018-02-06T08:50:46.363Z,5.29
2018-02-06T08:56:48.474Z,5.15
2018-02-06T08:57:28.276Z,5.17
2018-02-06T08:58:08.773Z,5.35
2018-02-06T09:00:26.918Z,5.67
2018-02-06T09:02:31.834Z,5.9
2018-02-06T09:03:11.351Z,6.01
2018-02-06T09:03:51.755Z,5.96
2018-02-06T09:04:32.209Z,5.87
2018-02-06T09:05:12.625Z,5.87
2018-02-06T09:05:53.131Z,6.03
2018-02-06T09:06:33.528Z,6.17
2018-02-06T09:07:13.908Z,6.17
2018-02-06T09:07:54.437Z,6.13
2018-02-06T09:08:34.932Z,6.14
2018-02-06T09:09:15.275Z,6.17
2018-02-06T09:09:57.109Z,6.25
2018-02-06T09:10:36.568Z,6.14
2018-02-06T09:11:16.726Z,6.16
2018-02-06T09:11:57.145Z,6.14
2018-02-06T09:12:37.574Z,6.14
2018-02-06T09:13:18.032Z,6.14
2018-02-06T09:13:58.461Z,6.16
2018-02-06T09:14:38.820Z,6.14
2018-02-06T09:15:19.259Z,6.25
2018-02-06T09:15:59.706Z,6.27
2018-02-06T09:16:40.185Z,6.45
2018-02-06T09:17:20.635Z,6.53
2018-02-06T09:18:01.160Z,6.6
2018-02-06T09:18:41.650Z,6.55
2018-02-06T09:19:22.051Z,6.64
2018-02-06T09:20:03.132Z,6.76
2018-02-06T09:21:58.826Z,6.93
2018-02-06T09:23:55.655Z,6.68
2018-02-06T09:24:40.617Z,6.5
2018-02-06T09:25:20.766Z,6.5
2018-02-06T09:26:01.197Z,6.48
2018-02-06T09:26:41.564Z,6.51
2018-02-06T09:27:21.995Z,6.3
2018-02-06T09:28:02.401Z,6.36
2018-02-06T09:28:42.825Z,6.48
2018-02-06T09:29:23.308Z,6.46
2018-02-06T09:30:10.772Z,6.35
2018-02-06T09:30:51.189Z,6.43
2018-02-06T09:31:31.666Z,6.46
2018-02-06T09:32:12.084Z,6.54
2018-02-06T09:32:52.440Z,6.54
2018-02-06T09:33:32.900Z,6.58
2018-02-06T09:34:13.322Z,6.63
2018-02-06T09:34:53.786Z,6.63
2018-02-06T09:35:34.136Z,6.53
2018-02-06T09:36:14.647Z,6.53
2018-02-06T09:36:55.093Z,6.79
2018-02-06T09:37:35.536Z,6.78
2018-02-06T09:38:16.017Z,6.71
2018-02-06T09:38:56.368Z,6.64
2018-02-06T09:40:34.283Z,6.93
2018-02-06T09:41:19.609Z,7.05
2018-02-06T09:41:59.986Z,7.05
2018-02-06T09:42:40.352Z,7.08
2018-02-06T09:43:20.898Z,7.09
2018-02-06T09:44:01.179Z,6.93
2018-02-06T09:44:41.873Z,6.69
2018-02-06T09:45:22.310Z,6.45
2018-02-06T09:46:02.593Z,6.36
2018-02-06T09:46:42.994Z,6.38
2018-02-06T09:47:23.423Z,6.32
2018-02-06T09:48:03.826Z,6.24
2018-02-06T09:48:44.223Z,6.3
2018-02-06T09:49:24.685Z,6.19
2018-02-06T09:50:05.080Z,6.21
2018-02-06T09:50:45.510Z,6.16
2018-02-06T09:51:25.917Z,6.24
2018-02-06T09:52:06.318Z,6.32
2018-02-06T09:52:46.994Z,6.54
2018-02-06T09:53:27.812Z,6.57
2018-02-06T09:54:08.322Z,6.64
2018-02-06T09:54:48.668Z,6.61
2018-02-06T09:55:29.144Z,6.48
2018-02-06T09:56:09.692Z,6.24
2018-02-06T09:56:50.129Z,6.2
2018-02-06T09:57:30.745Z,6.19
2018-02-06T09:58:11.272Z,6.27
2018-02-06T09:58:51.931Z,6.11
2018-02-06T09:59:32.456Z,6.24
2018-02-06T10:00:12.918Z,6.28
2018-02-06T10:00:53.255Z,6.11
2018-02-06T10:01:33.725Z,6.13
2018-02-06T10:02:16.436Z,6.14
2018-02-06T10:02:56.736Z,5.96
2018-02-06T10:03:37.163Z,6.06
2018-02-06T10:04:17.623Z,6.02
2018-02-06T10:04:58.154Z,5.95
2018-02-06T10:43:47.037Z,6.61
2018-02-06T10:47:03.133Z,6.68
2018-02-06T10:47:52.025Z,6.64
2018-02-06T10:49:25.701Z,6.87
2018-02-06T10:50:06.355Z,6.93
2018-02-06T10:52:53.676Z,7.05
2018-02-06T10:53:34.174Z,6.99
2018-02-06T10:54:14.477Z,7.05
2018-02-06T10:54:54.938Z,7
2018-02-06T10:55:35.286Z,6.76
2018-02-06T10:56:15.753Z,6.63
2018-02-06T10:56:56.122Z,6.48
2018-02-06T10:57:36.537Z,6.48
2018-02-06T10:58:16.947Z,6.5
2018-02-06T10:58:57.307Z,6.43
2018-02-06T10:59:37.916Z,6.27
2018-02-06T11:00:19.232Z,6.14
2018-02-06T11:00:59.777Z,6.03
2018-02-06T11:01:40.208Z,5.81
2018-02-06T11:02:21.142Z,5.75
2018-02-06T11:03:02.122Z,5.47
2018-02-06T11:03:43.169Z,5.2
2018-02-06T11:04:23.640Z,4.87
2018-02-06T11:05:04.321Z,4.56
2018-02-06T11:05:44.712Z,4.49
2018-02-06T11:06:25.136Z,4.29
2018-02-06T11:07:05.783Z,4.13
2018-02-06T11:07:46.469Z,3.84
2018-02-06T11:08:27.277Z,3.6
2018-02-06T11:09:07.856Z,3.62
2018-02-06T11:09:48.266Z,3.68
2018-02-06T11:10:28.860Z,3.88
2018-02-06T11:11:09.260Z,4.13
2018-02-06T11:11:49.811Z,4.26
2018-02-06T11:12:30.120Z,4.42
2018-02-06T11:13:11.338Z,4.53
2018-02-06T11:13:51.548Z,4.53
2018-02-06T11:14:32.522Z,4.32
2018-02-06T11:15:13.541Z,4.06
2018-02-06T11:15:54.148Z,3.81
2018-02-06T11:16:36.497Z,3.71
2018-02-06T11:17:17.252Z,3.67
2018-02-06T11:17:58.220Z,3.62
2018-02-06T11:18:38.612Z,3.7
2018-02-06T11:19:19.581Z,3.86
2018-02-06T11:20:00.307Z,4
2018-02-06T11:20:40.946Z,4.28
2018-02-06T11:21:21.582Z,4.57
2018-02-06T11:22:02.204Z,4.53
2018-02-06T11:22:42.553Z,4.56
2018-02-06T11:23:23.406Z,4.64
2018-02-06T11:24:04.362Z,4.69
2018-02-06T11:24:44.959Z,4.65
2018-02-06T11:25:25.477Z,4.64
2018-02-06T11:26:06.047Z,4.65
2018-02-06T11:26:46.522Z,4.51
2018-02-06T11:27:27.232Z,4.64
2018-02-06T11:28:07.856Z,4.68
2018-02-06T11:28:49.937Z,4.69
2018-02-06T11:29:30.699Z,4.67
2018-02-06T11:30:11.381Z,4.47
2018-02-06T11:30:51.983Z,4.56
2018-02-06T11:31:32.871Z,4.51
2018-02-06T11:32:13.018Z,4.43
2018-02-06T11:32:53.487Z,4.38
2018-02-06T11:33:33.892Z,4.46
2018-02-06T11:34:14.407Z,4.53
2018-02-06T11:34:54.878Z,4.62
2018-02-06T11:35:35.276Z,4.72
2018-02-06T11:36:15.687Z,4.74
2018-02-06T11:36:56.158Z,4.83
2018-02-06T11:37:36.531Z,4.74
2018-02-06T11:38:17.004Z,4.83
2018-02-06T11:38:57.391Z,4.72
2018-02-06T11:39:37.854Z,4.77
2018-02-06T11:40:18.462Z,4.75
2018-02-06T11:40:58.939Z,4.75
2018-02-06T11:41:39.426Z,4.62
2018-02-06T11:42:19.929Z,4.67
2018-02-06T11:43:00.544Z,4.62
2018-02-06T11:43:41.057Z,4.59
2018-02-06T11:44:21.724Z,4.72
2018-02-06T11:45:02.470Z,4.84
2018-02-06T11:45:43.034Z,5.06
2018-02-06T11:46:23.415Z,5.15
2018-02-06T11:47:03.886Z,5.15
2018-02-06T11:47:44.623Z,5.06
2018-02-06T11:48:25.337Z,4.94
2018-02-06T11:49:06.001Z,4.83
2018-02-06T11:49:46.489Z,4.65
2018-02-06T11:50:27.299Z,4.64
2018-02-06T11:51:07.839Z,4.57
2018-02-06T11:51:48.381Z,4.56
2018-02-06T11:52:28.774Z,4.46
2018-02-06T11:53:09.166Z,4.39
2018-02-06T11:53:50.752Z,4.26
2018-02-06T11:54:30.834Z,4.07
2018-02-06T11:55:11.256Z,4.04
2018-02-06T11:55:51.644Z,3.96
2018-02-06T11:56:33.805Z,3.81
2018-02-06T11:57:13.973Z,3.84
2018-02-06T11:57:55.199Z,3.8
2018-02-06T11:58:35.360Z,3.82
2018-02-06T11:59:16.115Z,4.08
2018-02-06T11:59:57.186Z,4.26
2018-02-06T12:00:37.355Z,4.32
2018-02-06T12:01:18.718Z,4.5
2018-02-06T12:01:59.685Z,4.67
2018-02-06T12:02:39.726Z,4.67
2018-02-06T12:03:20.957Z,4.91
2018-02-06T12:04:01.462Z,5.15
2018-02-06T12:04:42.009Z,5.24
2018-02-06T12:05:23.444Z,5.32
2018-02-06T12:06:04.397Z,5.27
2018-02-06T12:06:44.545Z,5.32
2018-02-06T12:07:25.381Z,5.38
2018-02-06T12:08:06.195Z,5.35
2018-02-06T12:08:46.942Z,5.38
2018-02-06T12:09:27.864Z,5.4
2018-02-06T12:10:08.112Z,5.4
2018-02-06T12:10:48.995Z,5.41
2018-02-06T12:11:29.444Z,5.33
2018-02-06T12:12:10.740Z,5.52
2018-02-06T12:12:50.493Z,5.48
2018-02-06T12:13:31.115Z,5.69
2018-02-06T12:14:12.008Z,5.62
2018-02-06T12:14:53.430Z,5.26
2018-02-06T12:15:34.004Z,5.06
2018-02-06T12:16:15.150Z,4.87
2018-02-06T12:16:55.625Z,4.59
2018-02-06T12:17:36.888Z,4.49
2018-02-06T12:18:16.840Z,4.25
2018-02-06T12:18:57.471Z,4
2018-02-06T12:19:37.890Z,3.92
2018-02-06T12:20:18.307Z,3.74
2018-02-06T12:20:58.787Z,3.67
2018-02-06T12:21:39.285Z,3.62
2018-02-06T12:22:19.619Z,3.54
2018-02-06T12:23:00.150Z,3.62
2018-02-06T12:23:41.282Z,3.42
2018-02-06T12:24:21.331Z,3.44
2018-02-06T12:25:01.823Z,3.33
2018-02-06T12:25:42.410Z,3.3
2018-02-06T12:26:22.881Z,3.41
2018-02-06T12:27:03.253Z,3.39
2018-02-06T12:27:43.782Z,3.39
2018-02-06T12:28:24.765Z,3.57
2018-02-06T12:29:05.336Z,3.56
2018-02-06T12:29:46.132Z,3.75
2018-02-06T12:30:26.870Z,3.8
2018-02-06T12:32:15.034Z,3.84
2018-02-06T12:32:55.619Z,3.74
2018-02-06T12:33:36.003Z,3.62
2018-02-06T12:34:16.501Z,3.63
2018-02-06T12:34:56.986Z,3.59
2018-02-06T12:35:37.370Z,3.54
2018-02-06T12:36:17.869Z,3.53
2018-02-06T12:36:58.491Z,3.44
2018-02-06T12:37:39.935Z,3.34
2018-02-06T12:38:19.798Z,3.35
2018-02-06T12:39:00.281Z,3.25
2018-02-06T12:39:40.858Z,3.26
2018-02-06T12:40:21.325Z,3.13
2018-02-06T12:41:01.690Z,3.04
2018-02-06T12:41:42.419Z,2.97
2018-02-06T12:43:34.981Z,2.94
2018-02-06T12:44:15.941Z,2.97
2018-02-06T12:44:56.367Z,3.15
2018-02-06T12:45:36.803Z,3.19
2018-02-06T12:46:17.214Z,3.28
2018-02-06T12:46:57.623Z,3.33
2018-02-06T12:47:38.104Z,3.5
2018-02-06T12:48:18.464Z,3.53
2018-02-06T12:48:58.927Z,3.52
2018-02-06T12:49:39.294Z,3.42
2018-02-06T12:50:19.752Z,3.37
2018-02-06T12:52:07.366Z,3.57
2018-02-06T12:53:58.689Z,3.62
2018-02-06T12:54:37.253Z,3.95
2018-02-06T12:55:17.689Z,4.06
2018-02-06T12:55:58.136Z,4.11
2018-02-06T12:56:38.614Z,4.31
2018-02-06T12:57:19.146Z,4.36
2018-02-06T12:57:59.484Z,4.53
2018-02-06T12:58:39.906Z,4.61
2018-02-06T12:59:20.295Z,4.61
2018-02-06T13:00:00.696Z,4.47
2018-02-06T13:00:41.190Z,4.34
2018-02-06T13:01:21.599Z,4.24